Latest Weather Observations for Aireys Inlet

IDV60801

Issued at 9:02 pm EST Friday 6 May 2016 (issued every 30 minutes, with the page automatically refreshed every 10 minutes)

About weather observations | Map of weather stations | Latest weather observations for VIC | Other Formats
Station Details ID: 090180 Name: AIREYS INLET Lat: -38.46 Lon: 144.09 Height: 95.0 m
Data from the previous 72 hours. | See also: Recent months at Aireys Inlet
Date/Time
EST
Temp
°C
App
Temp
°C
Dew
Point
Rel
Hum
%
Delta-T
°C
Wind Press
QNH
hPa
Press
MSL
hPa
Rain
since 9 am
mm
Dir
 
Spd
km/h
Gust
km/h
Spd
kts
Gust
kts
06/09:00pm 14.3 13.7 10.5 78 2.0 E 4 6 2 3 - - 0.0
06/08:30pm 14.5 13.9 10.3 76 2.2 ESE 4 6 2 3 - - 0.0
06/08:00pm 14.7 14.1 10.5 76 2.2 SE 4 6 2 3 - - 0.0
06/07:30pm 14.5 13.6 10.5 77 2.1 S 6 9 3 5 - - 0.0
06/07:00pm 14.7 13.8 10.7 77 2.1 S 6 9 3 5 - - 0.0
06/06:30pm 14.7 13.7 10.9 78 2.0 S 7 11 4 6 - - 0.0
06/06:00pm 15.0 13.6 11.0 77 2.1 S 9 15 5 8 - - 0.0
06/05:30pm 14.9 13.2 11.1 78 2.0 S 11 19 6 10 - - 0.0
06/05:00pm 15.3 13.0 11.9 80 1.8 SSW 15 20 8 11 - - 0.0
06/04:30pm 15.6 13.4 12.2 80 1.9 SSW 15 22 8 12 - - 0.0
06/04:00pm 16.2 13.8 12.6 79 2.0 SSW 17 26 9 14 - - 0.0
06/03:30pm 17.1 14.9 13.2 78 2.2 SSW 17 24 9 13 - - 0.0
06/03:00pm 18.8 17.9 12.5 67 3.5 SSW 9 17 5 9 - - 0.0
06/02:30pm 19.4 18.2 11.7 61 4.3 SSW 9 15 5 8 - - 0.0
06/02:00pm 20.1 17.7 11.3 57 4.9 W 15 28 8 15 - - 0.0
06/01:30pm 20.7 18.6 11.3 55 5.2 W 13 22 7 12 - - 0.0
06/01:00pm 20.2 18.6 11.4 57 4.9 NW 11 17 6 9 - - 0.0
06/12:30pm 19.3 15.5 11.3 60 4.4 NW 22 35 12 19 - - 0.0
06/12:00pm 19.5 17.1 11.5 60 4.4 WNW 15 24 8 13 - - 0.0
06/11:30am 18.9 16.6 11.7 63 4.0 W 15 22 8 12 - - 0.0
06/11:00am 19.2 17.4 11.0 59 4.5 NW 11 15 6 8 - - 0.0
06/10:30am 17.9 15.1 10.0 60 4.2 WNW 15 24 8 13 - - 0.0
06/10:00am 17.9 15.4 9.8 59 4.3 NW 13 24 7 13 - - 0.0
06/09:30am 17.0 13.9 8.7 58 4.3 NW 15 20 8 11 - - 0.0
06/09:00am 16.0 13.1 8.2 60 4.0 NW 13 22 7 12 - - 0.0
06/08:30am 15.5 11.8 7.8 60 3.9 NW 17 22 9 12 - - 0.0
06/08:00am 15.1 11.8 7.9 62 3.6 NNW 15 20 8 11 - - 0.0
06/07:30am 13.9 10.6 7.9 67 3.0 NW 15 17 8 9 - - 0.0
06/07:00am 14.0 10.7 8.2 68 2.9 NW 15 20 8 11 - - 0.0
06/06:30am 14.5 10.9 8.5 67 3.0 NW 17 24 9 13 - - 0.0
06/06:00am 14.9 12.1 8.4 65 3.3 NNW 13 19 7 10 - - 0.0
06/05:30am 14.8 11.9 8.3 65 3.3 NNW 13 17 7 9 - - 0.0
06/05:00am 15.0 12.1 8.3 64 3.4 NNW 13 19 7 10 - - 0.0
06/04:30am 14.9 12.4 8.4 65 3.3 NNW 11 17 6 9 - - 0.0
06/04:00am 14.4 12.4 8.6 68 2.9 NNE 9 15 5 8 - - 0.0
06/03:30am 14.1 12.4 8.3 68 2.9 NE 7 13 4 7 - - 0.0
06/03:00am 14.6 13.1 8.3 66 3.2 NE 6 9 3 5 - - 0.0
06/02:30am 15.0 13.3 8.5 65 3.3 NNE 7 17 4 9 - - 0.0
06/02:00am 15.1 13.0 8.3 64 3.4 NNE 9 17 5 9 - - 0.0
06/01:30am 15.7 13.2 8.4 62 3.7 NNE 11 20 6 11 - - 0.0
06/01:00am 16.1 13.7 8.6 61 3.8 NNE 11 19 6 10 - - 0.0
06/12:30am 16.6 13.4 8.3 58 4.2 N 15 24 8 13 - - 0.0
06/12:00am 16.8 11.9 8.5 58 4.3 N 24 41 13 22 - - 0.0
 
Date/Time
EST
Temp
°C
App
Temp
°C
Dew
Point
Rel
Hum
%
Delta-T
°C
Wind Press
QNH
hPa
Press
MSL
hPa
Rain
since 9 am
mm
Dir
 
Spd
km/h
Gust
km/h
Spd
kts
Gust
kts
05/11:30pm 17.0 11.3 8.4 57 4.4 N 28 46 15 25 - - 0.0
05/11:25pm 17.1 11.4 8.5 57 4.4 N 28 46 15 25 - - 0.0
05/11:00pm 17.1 11.8 8.3 56 4.5 N 26 46 14 25 - - 0.0
05/10:30pm 17.1 11.8 8.5 57 4.4 N 26 37 14 20 - - 0.0
05/10:00pm 17.2 12.3 8.6 57 4.4 N 24 39 13 21 - - 0.0
05/09:30pm 17.3 12.5 8.7 57 4.4 N 24 39 13 21 - - 0.0
05/09:00pm 17.3 12.5 8.7 57 4.4 N 24 39 13 21 - - 0.0
05/08:30pm 17.3 12.9 9.0 58 4.3 N 22 30 12 16 - - 0.0
05/08:00pm 17.4 13.9 8.8 57 4.5 N 17 26 9 14 - - 0.0
05/07:30pm 17.8 13.9 8.6 55 4.8 N 19 26 10 14 - - 0.0
05/07:00pm 18.2 14.3 8.7 54 4.9 N 19 26 10 14 - - 0.0
05/06:30pm 18.6 15.4 8.6 52 5.2 N 15 28 8 15 - - 0.0
05/06:00pm 19.4 16.2 8.4 49 5.7 N 15 24 8 13 - - 0.0
05/05:30pm 19.9 16.3 8.3 47 6.1 NNW 17 28 9 15 - - 0.0
05/05:00pm 20.6 17.4 8.6 46 6.3 NNW 15 35 8 19 - - 0.0
05/04:30pm 20.9 16.0 8.5 45 6.5 NNW 24 39 13 21 - - 0.0
05/04:00pm 21.6 17.1 8.5 43 6.9 NNW 22 41 12 22 - - 0.0
05/03:31pm 21.2 15.5 8.5 44 6.7 NNW 28 48 15 26 - - 0.0
05/03:30pm 21.4 16.2 8.7 44 6.7 NNW 26 48 14 26 - - 0.0
05/03:00pm 20.8 15.2 8.8 46 6.4 NNW 28 52 15 28 - - 0.0
05/02:30pm 20.4 14.3 8.4 46 6.3 NNW 30 48 16 26 - - 0.0
05/02:00pm 20.1 13.5 8.4 47 6.1 NNW 33 54 18 29 - - 0.0
05/01:30pm 19.6 11.8 8.3 48 5.9 NW 39 65 21 35 - - 0.0
05/01:03pm 20.9 14.8 8.2 44 6.7 NNW 30 52 16 28 - - 0.0
05/01:00pm 20.9 15.6 8.5 45 6.5 NNW 26 44 14 24 - - 0.0
05/12:31pm 19.6 13.5 8.3 48 5.9 NNW 30 54 16 29 - - 0.0
05/12:30pm 19.7 13.6 8.4 48 5.9 NNW 30 46 16 25 - - 0.0
05/12:00pm 18.9 12.9 8.8 52 5.3 NNW 30 52 16 28 - - 0.0
05/11:30am 19.0 12.7 8.9 52 5.3 N 32 56 17 30 - - 0.0
05/11:00am 18.4 11.5 8.9 54 5.0 NNW 35 57 19 31 - - 0.0
05/10:33am 18.7 12.8 9.2 54 5.0 N 30 54 16 29 - - 0.0
05/10:30am 18.2 12.4 9.3 56 4.7 N 30 46 16 25 - - 0.0
05/10:28am 17.8 12.4 9.4 58 4.4 N 28 46 15 25 - - 0.0
05/10:00am 17.0 11.1 9.2 60 4.1 N 30 46 16 25 - - 0.0
05/09:41am 16.0 10.1 9.0 63 3.6 N 30 52 16 28 - - 0.0
05/09:30am 15.6 10.5 9.1 65 3.4 N 26 43 14 23 - - 0.0
05/09:00am 14.9 9.6 8.6 66 3.2 N 26 39 14 21 - - 0.2
05/08:30am 14.2 8.9 8.4 68 2.9 N 26 39 14 21 - - 0.2
05/08:00am 13.3 7.9 8.2 71 2.5 NNW 26 39 14 21 - - 0.2
05/07:30am 13.5 7.7 7.9 69 2.8 NNW 28 46 15 25 - - 0.2
05/07:16am 13.4 7.2 7.8 69 2.8 NNW 30 50 16 27 - - 0.2
05/07:00am 13.4 6.6 7.8 69 2.8 NNW 33 48 18 26 - - 0.2
05/06:30am 13.3 6.5 7.7 69 2.8 NNW 33 52 18 28 - - 0.2
05/06:02am 13.3 6.5 7.7 69 2.8 NNW 33 52 18 28 - - 0.2
05/06:00am 13.4 6.2 7.6 68 2.9 NNW 35 46 19 25 - - 0.2
05/05:30am 13.3 6.1 7.7 69 2.8 NW 35 52 19 28 - - 0.2
05/05:02am 13.6 5.6 7.6 67 3.0 NW 39 57 21 31 - - 0.2
05/05:00am 13.8 5.5 7.8 67 3.0 NW 41 57 22 31 - - 0.2
05/04:34am 13.7 6.5 7.7 67 3.0 NW 35 54 19 29 - - 0.2
05/04:30am 13.8 6.6 7.8 67 3.0 NW 35 50 19 27 - - 0.2
05/04:05am 13.7 7.5 7.7 67 3.0 NW 30 57 16 31 - - 0.2
05/04:00am 13.8 7.0 7.6 66 3.1 NW 33 50 18 27 - - 0.2
05/03:30am 13.9 7.7 7.7 66 3.1 NW 30 54 16 29 - - 0.2
05/03:00am 13.9 8.1 7.9 67 3.0 NNW 28 46 15 25 - - 0.2
05/02:42am 13.9 8.1 7.9 67 3.0 NW 28 46 15 25 - - 0.2
05/02:30am 14.0 8.2 7.8 66 3.1 NNW 28 46 15 25 - - 0.2
05/02:00am 14.0 9.3 7.8 66 3.1 NNW 22 35 12 19 - - 0.2
05/01:30am 14.0 9.3 7.8 66 3.1 NNW 22 39 12 21 - - 0.2
05/01:00am 13.8 8.0 7.8 67 3.0 NNW 28 50 15 27 - - 0.2
05/12:30am 13.9 7.4 8.1 68 2.9 NNW 32 50 17 27 - - 0.2
05/12:08am 14.0 7.8 8.0 67 3.0 NNW 30 50 16 27 - - 0.2
05/12:00am 13.9 8.5 8.1 68 2.9 NNW 26 44 14 24 - - 0.2
 
Date/Time
EST
Temp
°C
App
Temp
°C
Dew
Point
Rel
Hum
%
Delta-T
°C
Wind Press
QNH
hPa
Press
MSL
hPa
Rain
since 9 am
mm
Dir
 
Spd
km/h
Gust
km/h
Spd
kts
Gust
kts
04/11:30pm 14.2 8.8 7.9 66 3.1 NNW 26 43 14 23 - - 0.2
04/11:05pm 14.2 8.5 8.2 67 3.0 NW 28 48 15 26 - - 0.2
04/11:00pm 14.2 9.3 8.4 68 2.9 NW 24 48 13 26 - - 0.2
04/10:30pm 14.0 9.8 8.4 69 2.8 NW 20 39 11 21 - - 0.2
04/10:00pm 14.0 7.0 8.4 69 2.8 NNW 35 57 19 31 - - 0.2
04/09:30pm 13.9 6.8 8.1 68 2.9 NNW 35 54 19 29 - - 0.2
04/09:17pm 13.9 7.2 8.1 68 2.9 NNW 33 57 18 31 - - 0.2
04/09:00pm 13.7 7.5 7.7 67 3.0 NNW 30 43 16 23 - - 0.2
04/08:30pm 13.9 8.8 7.7 66 3.1 NNW 24 39 13 21 - - 0.2
04/08:00pm 13.8 9.0 7.3 65 3.2 NNW 22 41 12 22 - - 0.2
04/07:30pm 13.7 9.8 7.0 64 3.3 N 17 30 9 16 - - 0.2
04/07:00pm 13.5 10.4 7.1 65 3.1 NNE 13 20 7 11 - - 0.2
04/06:30pm 13.7 10.2 7.0 64 3.3 N 15 22 8 12 - - 0.2
04/06:00pm 13.7 10.5 6.8 63 3.4 N 13 24 7 13 - - 0.2
04/05:30pm 14.2 10.8 6.1 58 3.9 N 13 22 7 12 - - 0.2
04/05:00pm 14.9 11.9 6.2 56 4.2 N 11 24 6 13 - - 0.2
04/04:30pm 15.6 11.8 5.8 52 4.7 NW 15 28 8 15 - - 0.2
04/04:00pm 15.8 11.7 6.3 53 4.6 NW 17 26 9 14 - - 0.2
04/03:30pm 15.1 10.0 6.1 55 4.4 NW 22 35 12 19 - - 0.2
04/03:00pm 16.1 11.6 6.0 51 4.9 NW 19 39 10 21 - - 0.2
04/02:30pm 15.1 7.8 5.6 53 4.5 NW 33 50 18 27 - - 0.2
04/02:05pm 15.8 9.5 5.7 51 4.9 NW 28 50 15 27 - - 0.2
04/02:00pm 15.5 9.8 6.5 55 4.4 NW 26 41 14 22 - - 0.2
04/01:30pm 14.6 9.5 6.2 57 4.1 NW 22 39 12 21 - - 0.2
04/01:00pm 14.8 8.9 5.9 55 4.3 NNW 26 43 14 23 - - 0.2
04/12:30pm 13.9 9.8 6.0 59 3.8 WNW 17 28 9 15 - - 0.2
04/12:00pm 13.5 7.6 5.7 59 3.7 NW 26 39 14 21 - - 0.2
04/11:47am 13.9 7.6 5.8 58 3.9 NW 28 46 15 25 - - 0.2
04/11:30am 14.3 10.2 6.4 59 3.8 WNW 17 35 9 19 - - 0.2
04/11:00am 12.9 8.3 6.7 66 3.0 NW 20 30 11 16 - - 0.2
04/10:30am 12.4 8.1 7.1 70 2.6 NW 19 30 10 16 - - 0.2
04/10:00am 11.1 5.3 6.3 72 2.3 NW 26 37 14 20 - - 0.2
04/09:30am 10.5 5.0 6.1 74 2.1 NW 24 35 13 19 - - 0.2
04/09:00am 9.8 4.3 5.8 76 1.8 NW 24 35 13 19 - - 0.0
04/08:30am 9.2 5.0 5.9 80 1.5 NW 17 32 9 17 - - 0.0
04/08:00am 8.3 3.2 5.9 85 1.1 NW 22 33 12 18 - - 0.0
04/07:30am 7.8 1.5 5.8 87 0.9 NW 28 39 15 21 - - 0.0
04/07:00am 8.0 1.7 5.8 86 1.0 NW 28 37 15 20 - - 0.0
04/06:30am 8.1 3.4 6.1 87 0.9 NW 20 33 11 18 - - 0.0
04/06:00am 8.2 2.4 6.2 87 0.9 NW 26 37 14 20 - - 0.0
04/05:30am 8.4 2.6 6.2 86 1.0 NW 26 35 14 19 - - 0.0
04/05:00am 8.3 3.8 6.3 87 0.9 NW 19 26 10 14 - - 0.0
04/04:30am 8.2 3.7 6.2 87 0.9 NW 19 26 10 14 - - 0.0
04/04:00am 8.5 3.9 6.3 86 1.0 NW 20 30 11 16 - - 0.0
04/03:30am 8.6 3.9 6.2 85 1.1 NW 20 30 11 16 - - 0.0
04/03:00am 8.7 4.1 6.5 86 1.0 NW 20 32 11 17 - - 0.0
04/02:30am 9.2 4.1 6.1 81 1.4 NW 22 35 12 19 - - 0.0
04/02:00am 9.1 3.7 6.2 82 1.3 NW 24 33 13 18 - - 0.0
04/01:30am 9.4 4.9 6.3 81 1.4 NW 19 32 10 17 - - 0.0
04/01:00am 9.2 5.5 6.3 82 1.3 NW 15 22 8 12 - - 0.0
04/12:30am 9.5 6.5 6.0 79 1.6 NW 11 20 6 11 - - 0.0
04/12:00am 9.6 6.6 6.0 78 1.7 WNW 11 19 6 10 - - 0.0
 
Date/Time
EST
Temp
°C
App
Temp
°C
Dew
Point
Rel
Hum
%
Delta-T
°C
Wind Press
QNH
hPa
Press
MSL
hPa
Rain
since 9 am
mm
Dir
 
Spd
km/h
Gust
km/h
Spd
kts
Gust
kts
03/11:30pm 9.6 6.2 5.8 77 1.7 NW 13 19 7 10 - - 0.0
03/11:00pm 9.6 6.6 6.0 78 1.7 WNW 11 28 6 15 - - 0.0
03/10:30pm 9.7 7.0 5.7 76 1.8 W 9 19 5 10 - - 0.0
03/10:00pm 9.9 6.8 5.5 74 2.0 WSW 11 32 6 17 - - 0.0
03/09:30pm 10.5 7.8 5.5 71 2.3 ENE 9 15 5 8 - - 0.0

Other Formats:

Comma delimited format used in spreadsheet applications
http://www.bom.gov.au/fwo/IDV60801/IDV60801.94846.axf

JavaScript Object Notation format (JSON) in row-major order
http://www.bom.gov.au/fwo/IDV60801/IDV60801.94846.json